KHPN/HPN METAR and TAF weather

Enter ICAO airport designator
Station Type Date Time Source
KHPN METAR 2019/10/18 10:56 UTC NOAA

KHPN 181056Z 31017G27KT 10SM FEW035 09/03 A2972 RMK AO2 PK WND 30027/1055 SLP066 T00890033 $


Station Type Date Time Source
KHPN Decoded METAR 2019/10/18 10:56 UTC NOAA

WHITE PLAINS WESTCHESTER, NY, United States (KHPN) 41-04N 073-42W 121M
Oct 18, 2019 - 06:56 AM EDT / 2019.10.18 1056 UTC
Wind: from the NW (310 degrees) at 20 MPH (17 KT) gusting to 31 MPH (27 KT):0
Visibility: 10 mile(s):0
Sky conditions: mostly clear
Temperature: 48.0 F (8.9 C)
Dew Point: 37.9 F (3.3 C)
Relative Humidity: 67%
Pressure (altimeter): 29.72 in. Hg (1006 hPa)
ob: KHPN 181056Z 31017G27KT 10SM FEW035 09/03 A2972 RMK AO2 PK WND 30027/1055 SLP066 T00890033
cycle: 11

Station Type Date Time Source
KHPN TAF 2019/10/18 09:33 UTC NOAA

TAF
AMD KHPN 180830Z 1809/1906 30019G26KT P6SM BKN050
FM182300 31011G17KT P6SM SCT050
FM190100 31008KT P6SM SCT050
AMD NOT SKED

Example: see airport list